Wiesbaden, Germany

7:30 PM CEST on September 22, 2014 (GMT +0200)
IHESSENH6 | Change Station
CLOSE
Current Station
Personal Weather Station
Location: Hochheim Am Main, HESSEN
Elevation: 393 ft
Nearby Weather Stations

Elev 393 ft 50.02 °N, 8.35 °E | Updated 30 minutes ago

Partly Cloudy
Partly Cloudy
55.2 °F
Feels Like 55.2 °F
N
0.1
Wind Variable Wind from NW
Gusts 0.0 mph

Today
High -- | Low -- °F
--% Chance of Precip.
Yesterday
High -- | Low -- °F
Precip. -- in
7:12 AM 7:25 PM
Waning Crescent, 2% visible
Pressure 30.12 in
Visibility 6.2 miles
Clouds Few 2800 ft
Dew Point 46 °F
Humidity 70%
Rainfall -999.00 in
Snow Depth Not available.
UV 0 out of 12
Pollen Not available.
Air Quality Not available.
Flu Activity Not available.
METAR EDDF 221720Z 31005KT 9999 FEW028 12/06 Q1020 NOSIG

More Conditions Fewer Conditions

Pressure 30.12 in
Visibility 6.2 miles
Clouds Few 2800 ft
Dew Point 46 °F
Humidity 70%
Rainfall -999.00 in
Snow Depth Not available.
UV 0 out of 12
Pollen Not available.
Air Quality Not available.
Flu Activity Not available.
METAR EDDF 221720Z 31005KT 9999 FEW028 12/06 Q1020 NOSIG

More Conditions Fewer Conditions

10-Day Weather Forecast

Almanac

Astronomy

Sep. 22, 2014 Rise Set
Actual Time 7:12 AM CEST 7:25 PM CEST
Civil Twilight 6:40 AM CEST 7:57 PM CEST
Nautical Twilight 6:02 AM CEST 8:35 PM CEST
Astronomical Twilight 5:22 AM CEST 9:15 PM CEST
Moon 5:18 AM CEST 6:29 PM CEST
Length of Visible Light 13h 17m
Length of Day
12h 12m
Tomorrow will be 3m 42s shorter.
Waning Crescent, 2% of the Moon is Illuminated
Today
Waning Crescent
Sep 24
New
Oct 1
First Quarter
Oct 8
Full
Oct 15
Last Quarter

Today's Extremes

Country Highs Country Lows

Community

WunderPhotos

Upload Photos

1,755,493 photos uploaded!

WunderBlogs® & News

Nearby

Snow Depth

Not available.

Earthquake Activity

City Distance Mag. Time & Date
No recent earthquake activity has been reported nearby.
Minimum magnitude displayed is 2.5.

Coastal Water Temperatures

Place Temperature
No Stations Reporting

Nearby Weather Stations